sensor_id;sensor_type;location;lat;lon;timestamp;temperature;humidity
3281;DHT22;1652;51.318;6.202;2023-01-29T00:01:34;-2.70;99.90
3281;DHT22;1652;51.318;6.202;2023-01-29T00:04:01;-2.60;99.90
3281;DHT22;1652;51.318;6.202;2023-01-29T00:06:28;-2.60;99.90
3281;DHT22;1652;51.318;6.202;2023-01-29T00:08:55;-2.50;99.90
3281;DHT22;1652;51.318;6.202;2023-01-29T00:11:22;-2.60;99.90
3281;DHT22;1652;51.318;6.202;2023-01-29T00:13:51;-2.60;99.90
3281;DHT22;1652;51.318;6.202;2023-01-29T00:16:19;-2.60;99.90
3281;DHT22;1652;51.318;6.202;2023-01-29T00:18:46;-2.50;99.90
3281;DHT22;1652;51.318;6.202;2023-01-29T00:21:15;-2.50;99.90
3281;DHT22;1652;51.318;6.202;2023-01-29T00:23:42;-2.70;99.90
3281;DHT22;1652;51.318;6.202;2023-01-29T00:26:10;-2.60;99.90
3281;DHT22;1652;51.318;6.202;2023-01-29T00:28:37;-2.70;99.90
3281;DHT22;1652;51.318;6.202;2023-01-29T00:31:11;-2.80;99.90
3281;DHT22;1652;51.318;6.202;2023-01-29T00:33:39;-2.80;99.90
3281;DHT22;1652;51.318;6.202;2023-01-29T00:36:08;-2.80;99.90
3281;DHT22;1652;51.318;6.202;2023-01-29T00:38:36;-3.00;99.90
3281;DHT22;1652;51.318;6.202;2023-01-29T00:41:10;-3.00;99.90
3281;DHT22;1652;51.318;6.202;2023-01-29T00:43:56;-2.90;99.90
3281;DHT22;1652;51.318;6.202;2023-01-29T00:46:41;-3.00;99.90
3281;DHT22;1652;51.318;6.202;2023-01-29T00:49:08;-3.00;99.90
3281;DHT22;1652;51.318;6.202;2023-01-29T00:51:36;-3.10;99.90
3281;DHT22;1652;51.318;6.202;2023-01-29T00:54:04;-3.20;99.90
3281;DHT22;1652;51.318;6.202;2023-01-29T00:56:34;-3.20;99.90
3281;DHT22;1652;51.318;6.202;2023-01-29T00:59:02;-3.00;99.90
3281;DHT22;1652;51.318;6.202;2023-01-29T01:01:29;-3.10;99.90
3281;DHT22;1652;51.318;6.202;2023-01-29T01:04:14;-3.20;99.90
3281;DHT22;1652;51.318;6.202;2023-01-29T01:06:42;-3.10;99.90
3281;DHT22;1652;51.318;6.202;2023-01-29T01:09:09;-3.00;99.90
3281;DHT22;1652;51.318;6.202;2023-01-29T01:11:54;-3.10;99.90
3281;DHT22;1652;51.318;6.202;2023-01-29T01:14:21;-3.20;99.90
3281;DHT22;1652;51.318;6.202;2023-01-29T01:16:48;-3.20;99.90
3281;DHT22;1652;51.318;6.202;2023-01-29T01:19:16;-3.00;99.90
3281;DHT22;1652;51.318;6.202;2023-01-29T01:21:43;-3.10;99.90
3281;DHT22;1652;51.318;6.202;2023-01-29T01:24:13;-3.00;99.90
3281;DHT22;1652;51.318;6.202;2023-01-29T01:26:40;-3.00;99.90
3281;DHT22;1652;51.318;6.202;2023-01-29T01:29:07;-3.00;99.90
3281;DHT22;1652;51.318;6.202;2023-01-29T01:31:35;-2.90;99.90
3281;DHT22;1652;51.318;6.202;2023-01-29T01:34:02;-2.90;99.90
3281;DHT22;1652;51.318;6.202;2023-01-29T01:36:29;-2.90;99.90
3281;DHT22;1652;51.318;6.202;2023-01-29T01:38:58;-2.80;99.90
3281;DHT22;1652;51.318;6.202;2023-01-29T01:41:25;-2.80;99.90
3281;DHT22;1652;51.318;6.202;2023-01-29T01:47:01;-2.70;99.90
3281;DHT22;1652;51.318;6.202;2023-01-29T01:49:28;-2.70;99.90
3281;DHT22;1652;51.318;6.202;2023-01-29T01:51:55;-2.60;99.90
3281;DHT22;1652;51.318;6.202;2023-01-29T01:54:27;-2.70;99.90
3281;DHT22;1652;51.318;6.202;2023-01-29T01:56:59;-2.90;99.90
3281;DHT22;1652;51.318;6.202;2023-01-29T01:59:37;-3.00;99.90
3281;DHT22;1652;51.318;6.202;2023-01-29T02:02:06;-3.00;99.90
3281;DHT22;1652;51.318;6.202;2023-01-29T02:04:52;-3.10;99.90
3281;DHT22;1652;51.318;6.202;2023-01-29T02:07:45;-3.10;99.90
3281;DHT22;1652;51.318;6.202;2023-01-29T02:10:40;-3.20;99.90
3281;DHT22;1652;51.318;6.202;2023-01-29T02:13:11;-3.10;99.90
3281;DHT22;1652;51.318;6.202;2023-01-29T02:15:42;-3.00;99.90
3281;DHT22;1652;51.318;6.202;2023-01-29T02:18:15;-3.10;99.90
3281;DHT22;1652;51.318;6.202;2023-01-29T02:20:48;-3.10;99.90
3281;DHT22;1652;51.318;6.202;2023-01-29T02:23:44;-3.10;99.90
3281;DHT22;1652;51.318;6.202;2023-01-29T02:29:27;-3.20;99.90
3281;DHT22;1652;51.318;6.202;2023-01-29T02:40:59;-3.10;99.90
3281;DHT22;1652;51.318;6.202;2023-01-29T02:43:43;-3.10;99.90
3281;DHT22;1652;51.318;6.202;2023-01-29T02:46:20;-3.20;99.90
3281;DHT22;1652;51.318;6.202;2023-01-29T02:51:45;-3.10;99.90
3281;DHT22;1652;51.318;6.202;2023-01-29T02:54:24;-3.00;99.90
3281;DHT22;1652;51.318;6.202;2023-01-29T02:56:58;-3.00;99.90
3281;DHT22;1652;51.318;6.202;2023-01-29T02:59:37;-3.00;99.90
3281;DHT22;1652;51.318;6.202;2023-01-29T03:02:16;-2.80;99.90
3281;DHT22;1652;51.318;6.202;2023-01-29T03:04:49;-2.80;99.90
3281;DHT22;1652;51.318;6.202;2023-01-29T03:07:22;-2.80;99.90
3281;DHT22;1652;51.318;6.202;2023-01-29T03:10:27;-2.80;99.90
3281;DHT22;1652;51.318;6.202;2023-01-29T03:13:05;-2.80;99.90
3281;DHT22;1652;51.318;6.202;2023-01-29T03:15:40;-2.70;99.90
3281;DHT22;1652;51.318;6.202;2023-01-29T03:18:11;-2.70;99.90
3281;DHT22;1652;51.318;6.202;2023-01-29T03:20:46;-2.70;99.90
3281;DHT22;1652;51.318;6.202;2023-01-29T03:23:21;-2.60;99.90
3281;DHT22;1652;51.318;6.202;2023-01-29T03:25:55;-2.60;99.90
3281;DHT22;1652;51.318;6.202;2023-01-29T03:28:43;-2.60;99.90
3281;DHT22;1652;51.318;6.202;2023-01-29T03:31:31;-2.50;99.90
3281;DHT22;1652;51.318;6.202;2023-01-29T03:34:20;-2.40;99.90
3281;DHT22;1652;51.318;6.202;2023-01-29T03:36:57;-2.40;99.90
3281;DHT22;1652;51.318;6.202;2023-01-29T03:39:26;-2.40;99.90
3281;DHT22;1652;51.318;6.202;2023-01-29T03:42:58;-2.40;99.90
3281;DHT22;1652;51.318;6.202;2023-01-29T03:47:40;-2.50;99.90
3281;DHT22;1652;51.318;6.202;2023-01-29T03:50:32;-2.40;99.90
3281;DHT22;1652;51.318;6.202;2023-01-29T03:55:42;-2.50;99.90
3281;DHT22;1652;51.318;6.202;2023-01-29T03:58:24;-2.50;99.90
3281;DHT22;1652;51.318;6.202;2023-01-29T04:01:14;-2.70;99.90
3281;DHT22;1652;51.318;6.202;2023-01-29T04:03:55;-2.80;99.90
3281;DHT22;1652;51.318;6.202;2023-01-29T04:06:26;-2.80;99.90
3281;DHT22;1652;51.318;6.202;2023-01-29T04:08:57;-2.80;99.90
3281;DHT22;1652;51.318;6.202;2023-01-29T04:11:26;-2.80;99.90
3281;DHT22;1652;51.318;6.202;2023-01-29T04:13:55;-2.70;99.90
3281;DHT22;1652;51.318;6.202;2023-01-29T04:16:38;-2.80;99.90
3281;DHT22;1652;51.318;6.202;2023-01-29T04:19:07;-2.90;99.90
3281;DHT22;1652;51.318;6.202;2023-01-29T04:21:34;-3.00;99.90
3281;DHT22;1652;51.318;6.202;2023-01-29T04:24:04;-2.90;99.90
3281;DHT22;1652;51.318;6.202;2023-01-29T04:27:06;-2.90;99.90
3281;DHT22;1652;51.318;6.202;2023-01-29T04:30:12;-2.80;99.90
3281;DHT22;1652;51.318;6.202;2023-01-29T04:35:53;-2.60;99.90
3281;DHT22;1652;51.318;6.202;2023-01-29T04:38:50;-2.60;99.90
3281;DHT22;1652;51.318;6.202;2023-01-29T04:46:51;-2.40;99.90
3281;DHT22;1652;51.318;6.202;2023-01-29T05:00:32;-2.30;99.90
3281;DHT22;1652;51.318;6.202;2023-01-29T05:03:01;-2.20;99.90
3281;DHT22;1652;51.318;6.202;2023-01-29T05:05:29;-2.10;99.90
3281;DHT22;1652;51.318;6.202;2023-01-29T05:07:57;-2.00;99.90
3281;DHT22;1652;51.318;6.202;2023-01-29T05:10:25;-1.90;99.90
3281;DHT22;1652;51.318;6.202;2023-01-29T05:13:05;-1.80;99.90
3281;DHT22;1652;51.318;6.202;2023-01-29T05:15:39;-1.70;99.90
3281;DHT22;1652;51.318;6.202;2023-01-29T05:18:07;-1.60;99.90
3281;DHT22;1652;51.318;6.202;2023-01-29T05:20:38;-1.60;99.90
3281;DHT22;1652;51.318;6.202;2023-01-29T05:23:18;-1.50;99.90
3281;DHT22;1652;51.318;6.202;2023-01-29T05:25:46;-1.40;99.90
3281;DHT22;1652;51.318;6.202;2023-01-29T05:28:13;-1.40;99.90
3281;DHT22;1652;51.318;6.202;2023-01-29T05:30:48;-1.30;99.90
3281;DHT22;1652;51.318;6.202;2023-01-29T05:33:23;-1.30;99.90
3281;DHT22;1652;51.318;6.202;2023-01-29T05:35:51;-1.30;99.90
3281;DHT22;1652;51.318;6.202;2023-01-29T05:38:18;-1.30;99.90
3281;DHT22;1652;51.318;6.202;2023-01-29T05:40:45;-1.30;99.90
3281;DHT22;1652;51.318;6.202;2023-01-29T05:45:42;-1.10;99.90
3281;DHT22;1652;51.318;6.202;2023-01-29T05:48:08;-1.10;99.90
3281;DHT22;1652;51.318;6.202;2023-01-29T05:50:35;-1.10;99.90
3281;DHT22;1652;51.318;6.202;2023-01-29T05:53:02;-1.00;99.90
3281;DHT22;1652;51.318;6.202;2023-01-29T05:55:29;-1.00;99.90
3281;DHT22;1652;51.318;6.202;2023-01-29T05:57:56;-1.00;99.90
3281;DHT22;1652;51.318;6.202;2023-01-29T06:00:23;-0.90;99.90
3281;DHT22;1652;51.318;6.202;2023-01-29T06:02:49;-0.90;99.90
3281;DHT22;1652;51.318;6.202;2023-01-29T06:05:16;-0.90;99.90
3281;DHT22;1652;51.318;6.202;2023-01-29T06:07:43;-0.80;99.90
3281;DHT22;1652;51.318;6.202;2023-01-29T06:10:17;-0.90;99.90
3281;DHT22;1652;51.318;6.202;2023-01-29T06:12:44;-0.90;99.90
3281;DHT22;1652;51.318;6.202;2023-01-29T06:15:12;-0.80;99.90
3281;DHT22;1652;51.318;6.202;2023-01-29T06:17:41;-0.80;99.90
3281;DHT22;1652;51.318;6.202;2023-01-29T06:20:09;-0.80;99.90
3281;DHT22;1652;51.318;6.202;2023-01-29T06:22:36;-0.80;99.90
3281;DHT22;1652;51.318;6.202;2023-01-29T06:25:03;-0.80;99.90
3281;DHT22;1652;51.318;6.202;2023-01-29T06:27:30;-0.80;99.90
3281;DHT22;1652;51.318;6.202;2023-01-29T06:29:56;-0.70;99.90
3281;DHT22;1652;51.318;6.202;2023-01-29T06:32:23;-0.60;99.90
3281;DHT22;1652;51.318;6.202;2023-01-29T06:34:50;-0.60;99.90
3281;DHT22;1652;51.318;6.202;2023-01-29T06:37:18;-0.60;99.90
3281;DHT22;1652;51.318;6.202;2023-01-29T06:39:45;-0.70;99.90
3281;DHT22;1652;51.318;6.202;2023-01-29T06:42:12;-0.60;99.90
3281;DHT22;1652;51.318;6.202;2023-01-29T06:44:38;-0.50;99.90
3281;DHT22;1652;51.318;6.202;2023-01-29T06:47:05;-0.40;99.90
3281;DHT22;1652;51.318;6.202;2023-01-29T06:49:32;-0.30;99.90
3281;DHT22;1652;51.318;6.202;2023-01-29T06:51:59;-0.30;99.90
3281;DHT22;1652;51.318;6.202;2023-01-29T06:54:25;-0.30;99.90
3281;DHT22;1652;51.318;6.202;2023-01-29T06:56:52;-0.30;99.90
3281;DHT22;1652;51.318;6.202;2023-01-29T06:59:19;-0.30;99.90
3281;DHT22;1652;51.318;6.202;2023-01-29T07:01:46;-0.30;99.90
3281;DHT22;1652;51.318;6.202;2023-01-29T07:04:13;-0.30;99.90
3281;DHT22;1652;51.318;6.202;2023-01-29T07:06:40;-0.30;99.90
3281;DHT22;1652;51.318;6.202;2023-01-29T07:09:06;-0.30;99.90
3281;DHT22;1652;51.318;6.202;2023-01-29T07:11:34;-0.30;99.90
3281;DHT22;1652;51.318;6.202;2023-01-29T07:14:00;-0.20;99.90
3281;DHT22;1652;51.318;6.202;2023-01-29T07:16:27;-0.20;99.90
3281;DHT22;1652;51.318;6.202;2023-01-29T07:18:54;-0.20;99.90
3281;DHT22;1652;51.318;6.202;2023-01-29T07:21:21;-0.20;99.90
3281;DHT22;1652;51.318;6.202;2023-01-29T07:23:48;-0.20;99.90
3281;DHT22;1652;51.318;6.202;2023-01-29T07:26:15;-0.20;99.90
3281;DHT22;1652;51.318;6.202;2023-01-29T07:28:42;-0.20;99.90
3281;DHT22;1652;51.318;6.202;2023-01-29T07:31:11;-0.20;99.90
3281;DHT22;1652;51.318;6.202;2023-01-29T07:33:39;-0.10;99.90
3281;DHT22;1652;51.318;6.202;2023-01-29T07:36:07;-0.10;99.90
3281;DHT22;1652;51.318;6.202;2023-01-29T07:38:34;0.00;99.90
3281;DHT22;1652;51.318;6.202;2023-01-29T07:41:01;0.00;99.90
3281;DHT22;1652;51.318;6.202;2023-01-29T07:43:29;0.00;99.90
3281;DHT22;1652;51.318;6.202;2023-01-29T07:46:00;0.10;99.90
3281;DHT22;1652;51.318;6.202;2023-01-29T07:48:28;0.10;99.90
3281;DHT22;1652;51.318;6.202;2023-01-29T07:50:55;0.20;99.90
3281;DHT22;1652;51.318;6.202;2023-01-29T07:53:22;0.30;99.90
3281;DHT22;1652;51.318;6.202;2023-01-29T07:55:49;0.30;99.90
3281;DHT22;1652;51.318;6.202;2023-01-29T07:58:16;0.30;99.90
3281;DHT22;1652;51.318;6.202;2023-01-29T08:00:43;0.30;99.90
3281;DHT22;1652;51.318;6.202;2023-01-29T08:03:12;0.30;99.90
3281;DHT22;1652;51.318;6.202;2023-01-29T08:05:40;0.30;99.90
3281;DHT22;1652;51.318;6.202;2023-01-29T08:08:07;0.30;99.90
3281;DHT22;1652;51.318;6.202;2023-01-29T08:10:35;0.30;99.90
3281;DHT22;1652;51.318;6.202;2023-01-29T08:13:04;0.30;99.90
3281;DHT22;1652;51.318;6.202;2023-01-29T08:15:31;0.30;99.90
3281;DHT22;1652;51.318;6.202;2023-01-29T08:18:00;0.40;99.90
3281;DHT22;1652;51.318;6.202;2023-01-29T08:20:28;0.40;99.90
3281;DHT22;1652;51.318;6.202;2023-01-29T08:23:03;0.40;99.90
3281;DHT22;1652;51.318;6.202;2023-01-29T08:25:30;0.30;99.90
3281;DHT22;1652;51.318;6.202;2023-01-29T08:27:58;0.40;99.90
3281;DHT22;1652;51.318;6.202;2023-01-29T08:30:29;0.50;99.90
3281;DHT22;1652;51.318;6.202;2023-01-29T08:32:57;0.50;99.90
3281;DHT22;1652;51.318;6.202;2023-01-29T08:35:24;0.50;99.90
3281;DHT22;1652;51.318;6.202;2023-01-29T08:37:58;0.60;99.90
3281;DHT22;1652;51.318;6.202;2023-01-29T08:40:27;0.60;99.90
3281;DHT22;1652;51.318;6.202;2023-01-29T08:43:02;0.60;99.90
3281;DHT22;1652;51.318;6.202;2023-01-29T08:45:33;0.60;99.90
3281;DHT22;1652;51.318;6.202;2023-01-29T08:48:00;0.60;99.90
3281;DHT22;1652;51.318;6.202;2023-01-29T08:50:27;0.60;99.90
3281;DHT22;1652;51.318;6.202;2023-01-29T08:52:57;0.60;99.90
3281;DHT22;1652;51.318;6.202;2023-01-29T08:55:25;0.60;99.90
3281;DHT22;1652;51.318;6.202;2023-01-29T08:57:52;0.60;99.90
3281;DHT22;1652;51.318;6.202;2023-01-29T09:00:19;0.60;99.90
3281;DHT22;1652;51.318;6.202;2023-01-29T09:02:46;0.60;99.90
3281;DHT22;1652;51.318;6.202;2023-01-29T09:05:13;0.70;99.90
3281;DHT22;1652;51.318;6.202;2023-01-29T09:07:41;0.60;99.90
3281;DHT22;1652;51.318;6.202;2023-01-29T09:10:08;0.60;99.90
3281;DHT22;1652;51.318;6.202;2023-01-29T09:12:35;0.60;99.90
3281;DHT22;1652;51.318;6.202;2023-01-29T09:15:02;0.70;99.90
3281;DHT22;1652;51.318;6.202;2023-01-29T09:17:29;0.70;99.90
3281;DHT22;1652;51.318;6.202;2023-01-29T09:19:56;0.70;99.90
3281;DHT22;1652;51.318;6.202;2023-01-29T09:22:24;0.70;99.90
3281;DHT22;1652;51.318;6.202;2023-01-29T09:24:51;0.70;99.90
3281;DHT22;1652;51.318;6.202;2023-01-29T09:27:18;0.70;99.90
3281;DHT22;1652;51.318;6.202;2023-01-29T09:29:44;0.70;99.90
3281;DHT22;1652;51.318;6.202;2023-01-29T09:32:11;0.70;99.90
3281;DHT22;1652;51.318;6.202;2023-01-29T09:34:38;0.70;99.90
3281;DHT22;1652;51.318;6.202;2023-01-29T09:37:05;0.80;99.90
3281;DHT22;1652;51.318;6.202;2023-01-29T09:39:32;0.80;99.90
3281;DHT22;1652;51.318;6.202;2023-01-29T09:42:20;0.80;99.90
3281;DHT22;1652;51.318;6.202;2023-01-29T09:47:31;1.00;99.90
3281;DHT22;1652;51.318;6.202;2023-01-29T09:50:09;1.10;99.90
3281;DHT22;1652;51.318;6.202;2023-01-29T09:55:27;1.10;99.90
3281;DHT22;1652;51.318;6.202;2023-01-29T09:57:58;1.20;99.90
3281;DHT22;1652;51.318;6.202;2023-01-29T10:00:33;1.20;99.90
3281;DHT22;1652;51.318;6.202;2023-01-29T10:03:42;1.20;99.90
3281;DHT22;1652;51.318;6.202;2023-01-29T10:22:51;1.60;95.70
3281;DHT22;1652;51.318;6.202;2023-01-29T10:25:22;1.60;96.60
3281;DHT22;1652;51.318;6.202;2023-01-29T10:27:54;1.60;95.10
3281;DHT22;1652;51.318;6.202;2023-01-29T10:30:40;1.70;76.10
3281;DHT22;1652;51.318;6.202;2023-01-29T10:33:25;1.70;80.40
3281;DHT22;1652;51.318;6.202;2023-01-29T10:35:57;1.70;83.10
3281;DHT22;1652;51.318;6.202;2023-01-29T10:38:44;1.80;78.70
3281;DHT22;1652;51.318;6.202;2023-01-29T10:41:35;1.90;76.60
3281;DHT22;1652;51.318;6.202;2023-01-29T10:44:26;1.90;72.00
3281;DHT22;1652;51.318;6.202;2023-01-29T10:47:05;1.90;67.80
3281;DHT22;1652;51.318;6.202;2023-01-29T10:58:18;2.10;53.50
3281;DHT22;1652;51.318;6.202;2023-01-29T11:00:48;2.10;61.40
3281;DHT22;1652;51.318;6.202;2023-01-29T11:03:24;2.20;43.20
3281;DHT22;1652;51.318;6.202;2023-01-29T11:06:06;2.20;50.10
3281;DHT22;1652;51.318;6.202;2023-01-29T11:08:39;2.20;47.80
3281;DHT22;1652;51.318;6.202;2023-01-29T11:11:15;2.20;41.10
3281;DHT22;1652;51.318;6.202;2023-01-29T11:14:01;2.20;37.20
3281;DHT22;1652;51.318;6.202;2023-01-29T11:16:46;2.40;25.80
3281;DHT22;1652;51.318;6.202;2023-01-29T11:19:14;2.30;31.10
3281;DHT22;1652;51.318;6.202;2023-01-29T11:21:55;2.30;31.80
3281;DHT22;1652;51.318;6.202;2023-01-29T11:24:22;2.30;21.50
3281;DHT22;1652;51.318;6.202;2023-01-29T11:26:51;2.40;10.70
3281;DHT22;1652;51.318;6.202;2023-01-29T11:29:40;2.30;13.50
3281;DHT22;1652;51.318;6.202;2023-01-29T11:32:27;2.30;13.90
3281;DHT22;1652;51.318;6.202;2023-01-29T11:37:40;2.30;18.80
3281;DHT22;1652;51.318;6.202;2023-01-29T11:42:46;2.30;6.10
3281;DHT22;1652;51.318;6.202;2023-01-29T11:47:52;2.50;10.80
3281;DHT22;1652;51.318;6.202;2023-01-29T11:50:25;2.50;1.00
3281;DHT22;1652;51.318;6.202;2023-01-29T11:52:54;2.50;1.00
3281;DHT22;1652;51.318;6.202;2023-01-29T11:55:23;2.50;1.00
3281;DHT22;1652;51.318;6.202;2023-01-29T11:58:02;2.50;1.00
3281;DHT22;1652;51.318;6.202;2023-01-29T12:00:32;2.60;1.00
3281;DHT22;1652;51.318;6.202;2023-01-29T12:03:19;2.70;1.00
3281;DHT22;1652;51.318;6.202;2023-01-29T12:05:55;2.70;1.00
3281;DHT22;1652;51.318;6.202;2023-01-29T12:08:24;2.80;1.00
3281;DHT22;1652;51.318;6.202;2023-01-29T12:10:51;2.90;1.00
3281;DHT22;1652;51.318;6.202;2023-01-29T12:13:32;3.00;1.00
3281;DHT22;1652;51.318;6.202;2023-01-29T12:18:53;3.00;1.00
3281;DHT22;1652;51.318;6.202;2023-01-29T12:21:37;3.10;1.00
3281;DHT22;1652;51.318;6.202;2023-01-29T12:24:37;3.20;1.00
3281;DHT22;1652;51.318;6.202;2023-01-29T12:27:14;3.10;1.00
3281;DHT22;1652;51.318;6.202;2023-01-29T12:30:16;3.10;1.00
3281;DHT22;1652;51.318;6.202;2023-01-29T12:33:05;3.20;1.00
3281;DHT22;1652;51.318;6.202;2023-01-29T12:35:46;3.10;1.00
3281;DHT22;1652;51.318;6.202;2023-01-29T12:38:18;3.20;1.00
3281;DHT22;1652;51.318;6.202;2023-01-29T12:40:47;3.20;1.00
3281;DHT22;1652;51.318;6.202;2023-01-29T12:43:20;3.30;1.00
3281;DHT22;1652;51.318;6.202;2023-01-29T12:45:51;3.30;1.00
3281;DHT22;1652;51.318;6.202;2023-01-29T12:48:33;3.30;1.00
3281;DHT22;1652;51.318;6.202;2023-01-29T12:51:09;3.40;1.00
3281;DHT22;1652;51.318;6.202;2023-01-29T12:53:42;3.30;1.00
3281;DHT22;1652;51.318;6.202;2023-01-29T12:56:15;3.20;1.00
3281;DHT22;1652;51.318;6.202;2023-01-29T12:58:49;3.10;1.00
3281;DHT22;1652;51.318;6.202;2023-01-29T13:01:35;3.00;1.00
3281;DHT22;1652;51.318;6.202;2023-01-29T13:04:09;3.10;1.00
3281;DHT22;1652;51.318;6.202;2023-01-29T13:06:42;3.10;1.00
3281;DHT22;1652;51.318;6.202;2023-01-29T13:09:24;3.10;1.00
3281;DHT22;1652;51.318;6.202;2023-01-29T13:11:57;3.10;1.00
3281;DHT22;1652;51.318;6.202;2023-01-29T13:19:52;3.00;1.00
3281;DHT22;1652;51.318;6.202;2023-01-29T13:22:23;3.00;1.00
3281;DHT22;1652;51.318;6.202;2023-01-29T13:24:51;3.00;1.00
3281;DHT22;1652;51.318;6.202;2023-01-29T13:27:32;3.10;1.00
3281;DHT22;1652;51.318;6.202;2023-01-29T13:30:00;3.10;1.00
3281;DHT22;1652;51.318;6.202;2023-01-29T13:32:29;3.10;1.00
3281;DHT22;1652;51.318;6.202;2023-01-29T13:35:05;3.10;1.00
3281;DHT22;1652;51.318;6.202;2023-01-29T13:37:49;3.00;1.00
3281;DHT22;1652;51.318;6.202;2023-01-29T13:40:24;2.90;1.00
3281;DHT22;1652;51.318;6.202;2023-01-29T13:42:54;2.80;1.00
3281;DHT22;1652;51.318;6.202;2023-01-29T13:45:34;2.80;1.00
3281;DHT22;1652;51.318;6.202;2023-01-29T13:48:28;2.80;1.00
3281;DHT22;1652;51.318;6.202;2023-01-29T13:51:02;2.90;1.00
3281;DHT22;1652;51.318;6.202;2023-01-29T13:53:39;2.80;1.00
3281;DHT22;1652;51.318;6.202;2023-01-29T13:59:00;2.80;1.00
3281;DHT22;1652;51.318;6.202;2023-01-29T14:06:50;2.90;1.00
3281;DHT22;1652;51.318;6.202;2023-01-29T14:12:31;2.90;1.00
3281;DHT22;1652;51.318;6.202;2023-01-29T14:15:14;3.00;1.00
3281;DHT22;1652;51.318;6.202;2023-01-29T14:20:49;2.90;1.00
3281;DHT22;1652;51.318;6.202;2023-01-29T14:26:04;2.90;1.00
3281;DHT22;1652;51.318;6.202;2023-01-29T14:28:33;2.90;1.00
3281;DHT22;1652;51.318;6.202;2023-01-29T14:31:01;2.90;1.00
3281;DHT22;1652;51.318;6.202;2023-01-29T14:33:39;2.80;1.00
3281;DHT22;1652;51.318;6.202;2023-01-29T14:36:12;2.80;1.00
3281;DHT22;1652;51.318;6.202;2023-01-29T14:38:46;2.90;1.00
3281;DHT22;1652;51.318;6.202;2023-01-29T14:43:46;2.80;1.00
3281;DHT22;1652;51.318;6.202;2023-01-29T14:46:41;2.80;1.00
3281;DHT22;1652;51.318;6.202;2023-01-29T14:49:08;2.80;1.00
3281;DHT22;1652;51.318;6.202;2023-01-29T14:51:37;2.90;1.00
3281;DHT22;1652;51.318;6.202;2023-01-29T14:54:24;2.80;1.00
3281;DHT22;1652;51.318;6.202;2023-01-29T14:56:59;2.80;1.00
3281;DHT22;1652;51.318;6.202;2023-01-29T14:59:37;2.80;1.00
3281;DHT22;1652;51.318;6.202;2023-01-29T15:02:17;2.90;1.00
3281;DHT22;1652;51.318;6.202;2023-01-29T15:04:52;2.80;1.00
3281;DHT22;1652;51.318;6.202;2023-01-29T15:07:27;2.80;1.00
3281;DHT22;1652;51.318;6.202;2023-01-29T15:10:22;2.80;1.00
3281;DHT22;1652;51.318;6.202;2023-01-29T15:13:18;2.70;1.00
3281;DHT22;1652;51.318;6.202;2023-01-29T15:16:07;2.90;1.00
3281;DHT22;1652;51.318;6.202;2023-01-29T15:18:42;2.80;1.00
3281;DHT22;1652;51.318;6.202;2023-01-29T15:21:13;2.80;1.00
3281;DHT22;1652;51.318;6.202;2023-01-29T15:23:40;2.80;1.00
3281;DHT22;1652;51.318;6.202;2023-01-29T15:26:11;2.80;1.00
3281;DHT22;1652;51.318;6.202;2023-01-29T15:28:41;2.80;1.00
3281;DHT22;1652;51.318;6.202;2023-01-29T15:31:17;2.80;1.00
3281;DHT22;1652;51.318;6.202;2023-01-29T15:33:46;2.70;1.00
3281;DHT22;1652;51.318;6.202;2023-01-29T15:36:23;2.80;9.30
3281;DHT22;1652;51.318;6.202;2023-01-29T15:41:38;2.80;8.70
3281;DHT22;1652;51.318;6.202;2023-01-29T15:44:13;2.80;6.50
3281;DHT22;1652;51.318;6.202;2023-01-29T15:46:48;2.90;1.60
3281;DHT22;1652;51.318;6.202;2023-01-29T15:49:52;2.80;1.00
3281;DHT22;1652;51.318;6.202;2023-01-29T15:52:19;2.80;6.90
3281;DHT22;1652;51.318;6.202;2023-01-29T15:54:46;2.80;9.30
3281;DHT22;1652;51.318;6.202;2023-01-29T15:57:23;2.80;16.30
3281;DHT22;1652;51.318;6.202;2023-01-29T15:59:52;2.80;22.60
3281;DHT22;1652;51.318;6.202;2023-01-29T16:02:38;2.80;12.60
3281;DHT22;1652;51.318;6.202;2023-01-29T16:05:13;2.80;17.80
3281;DHT22;1652;51.318;6.202;2023-01-29T16:07:42;2.80;14.00
3281;DHT22;1652;51.318;6.202;2023-01-29T16:10:16;2.80;21.90
3281;DHT22;1652;51.318;6.202;2023-01-29T16:12:45;2.80;17.20
3281;DHT22;1652;51.318;6.202;2023-01-29T16:15:22;2.80;26.10
3281;DHT22;1652;51.318;6.202;2023-01-29T16:17:53;2.80;12.60
3281;DHT22;1652;51.318;6.202;2023-01-29T16:20:33;2.70;14.90
3281;DHT22;1652;51.318;6.202;2023-01-29T16:23:03;2.80;19.10
3281;DHT22;1652;51.318;6.202;2023-01-29T16:25:32;2.80;24.30
3281;DHT22;1652;51.318;6.202;2023-01-29T16:28:03;2.80;20.00
3281;DHT22;1652;51.318;6.202;2023-01-29T16:30:30;2.80;21.40
3281;DHT22;1652;51.318;6.202;2023-01-29T16:33:01;2.80;21.50
3281;DHT22;1652;51.318;6.202;2023-01-29T16:35:29;2.80;19.40
3281;DHT22;1652;51.318;6.202;2023-01-29T16:38:00;2.90;20.30
3281;DHT22;1652;51.318;6.202;2023-01-29T16:40:31;2.90;18.10
3281;DHT22;1652;51.318;6.202;2023-01-29T16:54:41;2.80;29.30
3281;DHT22;1652;51.318;6.202;2023-01-29T16:57:18;2.80;28.80
3281;DHT22;1652;51.318;6.202;2023-01-29T16:59:47;2.80;26.90
3281;DHT22;1652;51.318;6.202;2023-01-29T17:02:33;2.80;31.40
3281;DHT22;1652;51.318;6.202;2023-01-29T17:05:13;2.80;34.80
3281;DHT22;1652;51.318;6.202;2023-01-29T17:07:45;2.90;36.90
3281;DHT22;1652;51.318;6.202;2023-01-29T17:10:18;2.90;27.90
3281;DHT22;1652;51.318;6.202;2023-01-29T17:13:01;2.90;22.80
3281;DHT22;1652;51.318;6.202;2023-01-29T17:18:28;2.90;38.00
3281;DHT22;1652;51.318;6.202;2023-01-29T17:20:56;2.90;32.10
3281;DHT22;1652;51.318;6.202;2023-01-29T17:23:22;2.90;22.40
3281;DHT22;1652;51.318;6.202;2023-01-29T17:25:50;2.90;23.00
3281;DHT22;1652;51.318;6.202;2023-01-29T17:28:17;2.90;18.90
3281;DHT22;1652;51.318;6.202;2023-01-29T17:30:44;2.80;14.50
3281;DHT22;1652;51.318;6.202;2023-01-29T17:33:25;2.80;21.20
3281;DHT22;1652;51.318;6.202;2023-01-29T17:35:52;2.90;15.70
3281;DHT22;1652;51.318;6.202;2023-01-29T17:38:20;2.90;13.00
3281;DHT22;1652;51.318;6.202;2023-01-29T17:40:57;2.90;15.50
3281;DHT22;1652;51.318;6.202;2023-01-29T17:43:25;2.90;27.50
3281;DHT22;1652;51.318;6.202;2023-01-29T17:45:52;2.90;13.40
3281;DHT22;1652;51.318;6.202;2023-01-29T17:48:27;2.90;4.50
3281;DHT22;1652;51.318;6.202;2023-01-29T17:51:03;2.80;11.20
3281;DHT22;1652;51.318;6.202;2023-01-29T17:53:30;2.80;9.40
3281;DHT22;1652;51.318;6.202;2023-01-29T17:56:22;2.80;14.20
3281;DHT22;1652;51.318;6.202;2023-01-29T17:58:49;2.90;5.60
3281;DHT22;1652;51.318;6.202;2023-01-29T18:01:16;2.90;6.20
3281;DHT22;1652;51.318;6.202;2023-01-29T18:03:43;2.90;2.20
3281;DHT22;1652;51.318;6.202;2023-01-29T18:06:16;2.90;1.00
3281;DHT22;1652;51.318;6.202;2023-01-29T18:08:45;2.90;1.00
3281;DHT22;1652;51.318;6.202;2023-01-29T18:11:12;2.90;1.00
3281;DHT22;1652;51.318;6.202;2023-01-29T18:13:39;2.90;1.00
3281;DHT22;1652;51.318;6.202;2023-01-29T18:16:07;3.00;1.00
3281;DHT22;1652;51.318;6.202;2023-01-29T18:18:34;2.90;1.00
3281;DHT22;1652;51.318;6.202;2023-01-29T18:21:01;2.90;1.00
3281;DHT22;1652;51.318;6.202;2023-01-29T18:23:28;3.00;1.00
3281;DHT22;1652;51.318;6.202;2023-01-29T18:25:56;3.00;1.00
3281;DHT22;1652;51.318;6.202;2023-01-29T18:28:24;2.90;1.00
3281;DHT22;1652;51.318;6.202;2023-01-29T18:30:51;2.90;1.60
3281;DHT22;1652;51.318;6.202;2023-01-29T18:33:18;2.90;1.00
3281;DHT22;1652;51.318;6.202;2023-01-29T18:35:46;3.00;1.00
3281;DHT22;1652;51.318;6.202;2023-01-29T18:38:16;3.00;1.00
3281;DHT22;1652;51.318;6.202;2023-01-29T18:40:42;3.00;1.00
3281;DHT22;1652;51.318;6.202;2023-01-29T18:43:09;3.00;1.00
3281;DHT22;1652;51.318;6.202;2023-01-29T18:45:36;3.00;1.00
3281;DHT22;1652;51.318;6.202;2023-01-29T18:48:03;3.00;1.00
3281;DHT22;1652;51.318;6.202;2023-01-29T18:50:30;3.10;1.00
3281;DHT22;1652;51.318;6.202;2023-01-29T18:52:57;3.10;1.00
3281;DHT22;1652;51.318;6.202;2023-01-29T18:55:24;3.10;1.00
3281;DHT22;1652;51.318;6.202;2023-01-29T18:57:52;3.10;1.00
3281;DHT22;1652;51.318;6.202;2023-01-29T19:00:39;3.00;1.00
3281;DHT22;1652;51.318;6.202;2023-01-29T19:03:06;3.10;1.00